sensor_id;sensor_type;location;lat;lon;timestamp;pressure;altitude;pressure_sealevel;temperature;humidity
79400;BME280;68856;45.586;10.264;2023-04-06T00:02:18;99713.84;;;5.27;49.82
79400;BME280;68856;45.586;10.264;2023-04-06T00:04:45;99714.66;;;5.34;49.82
79400;BME280;68856;45.586;10.264;2023-04-06T00:07:11;99722.16;;;5.26;49.95
79400;BME280;68856;45.586;10.264;2023-04-06T00:09:37;99711.78;;;5.36;49.44
79400;BME280;68856;45.586;10.264;2023-04-06T00:12:03;99718.81;;;5.37;49.56
79400;BME280;68856;45.586;10.264;2023-04-06T00:14:30;99726.69;;;5.38;49.86
79400;BME280;68856;45.586;10.264;2023-04-06T00:16:57;99721.88;;;5.53;48.92
79400;BME280;68856;45.586;10.264;2023-04-06T00:19:23;99723.00;;;5.26;50.91
79400;BME280;68856;45.586;10.264;2023-04-06T00:21:49;99723.03;;;5.00;50.81
79400;BME280;68856;45.586;10.264;2023-04-06T00:24:15;99721.38;;;5.06;50.95
79400;BME280;68856;45.586;10.264;2023-04-06T00:26:42;99711.19;;;5.14;50.62
79400;BME280;68856;45.586;10.264;2023-04-06T00:29:08;99717.84;;;4.92;50.91
79400;BME280;68856;45.586;10.264;2023-04-06T00:31:34;99715.75;;;5.07;49.58
79400;BME280;68856;45.586;10.264;2023-04-06T00:34:00;99714.50;;;5.10;50.43
79400;BME280;68856;45.586;10.264;2023-04-06T00:36:27;99704.34;;;5.25;49.87
79400;BME280;68856;45.586;10.264;2023-04-06T00:38:53;99708.31;;;5.16;51.12
79400;BME280;68856;45.586;10.264;2023-04-06T00:41:19;99712.47;;;4.92;51.12
79400;BME280;68856;45.586;10.264;2023-04-06T00:43:46;99716.78;;;4.93;51.39
79400;BME280;68856;45.586;10.264;2023-04-06T00:46:13;99712.44;;;5.05;50.96
79400;BME280;68856;45.586;10.264;2023-04-06T00:48:39;99715.56;;;4.89;51.77
79400;BME280;68856;45.586;10.264;2023-04-06T00:51:06;99715.34;;;4.97;51.19
79400;BME280;68856;45.586;10.264;2023-04-06T00:53:32;99720.94;;;4.63;52.05
79400;BME280;68856;45.586;10.264;2023-04-06T00:55:59;99714.31;;;4.65;52.23
79400;BME280;68856;45.586;10.264;2023-04-06T00:58:25;99710.41;;;4.74;52.22
79400;BME280;68856;45.586;10.264;2023-04-06T01:00:52;99714.13;;;4.73;51.99
79400;BME280;68856;45.586;10.264;2023-04-06T01:03:18;99717.84;;;4.79;51.35
79400;BME280;68856;45.586;10.264;2023-04-06T01:05:44;99713.28;;;4.92;51.62
79400;BME280;68856;45.586;10.264;2023-04-06T01:08:11;99715.78;;;4.74;52.26
79400;BME280;68856;45.586;10.264;2023-04-06T01:10:37;99711.00;;;4.70;52.33
79400;BME280;68856;45.586;10.264;2023-04-06T01:13:03;99707.50;;;4.76;51.61
79400;BME280;68856;45.586;10.264;2023-04-06T01:15:30;99704.59;;;4.84;51.54
79400;BME280;68856;45.586;10.264;2023-04-06T01:17:58;99710.78;;;4.78;52.08
79400;BME280;68856;45.586;10.264;2023-04-06T01:20:24;99709.97;;;4.51;52.21
79400;BME280;68856;45.586;10.264;2023-04-06T01:22:50;99716.59;;;4.49;52.42
79400;BME280;68856;45.586;10.264;2023-04-06T01:25:16;99706.84;;;4.28;52.93
79400;BME280;68856;45.586;10.264;2023-04-06T01:27:43;99707.25;;;4.45;52.13
79400;BME280;68856;45.586;10.264;2023-04-06T01:30:10;99706.84;;;4.48;52.26
79400;BME280;68856;45.586;10.264;2023-04-06T01:32:36;99707.25;;;4.38;52.23
79400;BME280;68856;45.586;10.264;2023-04-06T01:35:02;99701.22;;;4.16;52.95
79400;BME280;68856;45.586;10.264;2023-04-06T01:37:29;99697.72;;;4.22;53.90
79400;BME280;68856;45.586;10.264;2023-04-06T01:39:58;99698.53;;;4.16;53.50
79400;BME280;68856;45.586;10.264;2023-04-06T01:42:24;99698.16;;;4.32;53.00
79400;BME280;68856;45.586;10.264;2023-04-06T01:44:52;99695.69;;;4.31;53.57
79400;BME280;68856;45.586;10.264;2023-04-06T01:47:18;99704.16;;;4.34;52.37
79400;BME280;68856;45.586;10.264;2023-04-06T01:49:44;99696.50;;;4.58;51.96
79400;BME280;68856;45.586;10.264;2023-04-06T01:52:11;99704.38;;;4.53;51.48
79400;BME280;68856;45.586;10.264;2023-04-06T01:54:37;99700.25;;;4.63;51.15
79400;BME280;68856;45.586;10.264;2023-04-06T01:57:03;99701.06;;;4.57;51.45
79400;BME280;68856;45.586;10.264;2023-04-06T01:59:29;99707.66;;;4.41;51.93
79400;BME280;68856;45.586;10.264;2023-04-06T02:01:56;99705.41;;;4.38;52.68
79400;BME280;68856;45.586;10.264;2023-04-06T02:04:22;99705.41;;;4.38;52.25
79400;BME280;68856;45.586;10.264;2023-04-06T02:06:48;99703.72;;;4.44;52.31
79400;BME280;68856;45.586;10.264;2023-04-06T02:09:15;99706.22;;;4.52;51.95
79400;BME280;68856;45.586;10.264;2023-04-06T02:11:41;99712.06;;;4.69;51.86
79400;BME280;68856;45.586;10.264;2023-04-06T02:14:08;99709.13;;;4.96;51.47
79400;BME280;68856;45.586;10.264;2023-04-06T02:16:34;99715.34;;;4.71;52.39
79400;BME280;68856;45.586;10.264;2023-04-06T02:19:00;99706.47;;;4.77;51.85
79400;BME280;68856;45.586;10.264;2023-04-06T02:21:26;99704.38;;;4.79;50.17
79400;BME280;68856;45.586;10.264;2023-04-06T02:23:53;99711.00;;;4.83;49.48
79400;BME280;68856;45.586;10.264;2023-04-06T02:26:19;99710.59;;;4.92;50.58
79400;BME280;68856;45.586;10.264;2023-04-06T02:28:46;99715.56;;;4.89;51.39
79400;BME280;68856;45.586;10.264;2023-04-06T02:31:12;99716.38;;;4.96;52.28
79400;BME280;68856;45.586;10.264;2023-04-06T02:33:40;99713.28;;;4.92;51.32
79400;BME280;68856;45.586;10.264;2023-04-06T02:36:07;99715.56;;;5.02;51.80
79400;BME280;68856;45.586;10.264;2023-04-06T02:38:33;99712.66;;;4.90;51.67
79400;BME280;68856;45.586;10.264;2023-04-06T02:40:59;99714.13;;;4.80;52.18
79400;BME280;68856;45.586;10.264;2023-04-06T02:43:26;99711.66;;;4.85;52.22
79400;BME280;68856;45.586;10.264;2023-04-06T02:45:52;99713.72;;;4.76;52.31
79400;BME280;68856;45.586;10.264;2023-04-06T02:48:18;99710.78;;;4.91;51.40
79400;BME280;68856;45.586;10.264;2023-04-06T02:50:45;99708.94;;;4.85;53.02
79400;BME280;68856;45.586;10.264;2023-04-06T02:53:11;99700.44;;;4.81;53.01
79400;BME280;68856;45.586;10.264;2023-04-06T02:55:37;99695.50;;;4.72;53.47
79400;BME280;68856;45.586;10.264;2023-04-06T02:58:03;99696.31;;;4.79;53.62
79400;BME280;68856;45.586;10.264;2023-04-06T03:00:30;99697.97;;;4.80;53.34
79400;BME280;68856;45.586;10.264;2023-04-06T03:02:56;99691.78;;;4.79;52.33
79400;BME280;68856;45.586;10.264;2023-04-06T03:05:23;99687.84;;;4.82;52.22
79400;BME280;68856;45.586;10.264;2023-04-06T03:07:49;99687.63;;;4.77;52.69
79400;BME280;68856;45.586;10.264;2023-04-06T03:10:15;99687.63;;;4.70;54.06
79400;BME280;68856;45.586;10.264;2023-04-06T03:12:42;99684.09;;;4.83;52.97
79400;BME280;68856;45.586;10.264;2023-04-06T03:15:08;99678.72;;;4.76;52.47
79400;BME280;68856;45.586;10.264;2023-04-06T03:17:35;99679.75;;;4.69;51.53
79400;BME280;68856;45.586;10.264;2023-04-06T03:20:02;99679.53;;;4.70;52.57
79400;BME280;68856;45.586;10.264;2023-04-06T03:22:29;99687.38;;;4.39;53.28
79400;BME280;68856;45.586;10.264;2023-04-06T03:24:55;99680.53;;;4.23;53.55
79400;BME280;68856;45.586;10.264;2023-04-06T03:27:22;99689.16;;;3.93;54.37
79400;BME280;68856;45.586;10.264;2023-04-06T03:29:48;99692.50;;;3.95;54.96
79400;BME280;68856;45.586;10.264;2023-04-06T03:32:14;99697.44;;;3.91;55.08
79400;BME280;68856;45.586;10.264;2023-04-06T03:34:41;99703.25;;;3.95;54.84
79400;BME280;68856;45.586;10.264;2023-04-06T03:37:07;99696.13;;;3.74;55.21
79400;BME280;68856;45.586;10.264;2023-04-06T03:39:33;99699.63;;;3.74;55.52
79400;BME280;68856;45.586;10.264;2023-04-06T03:41:59;99704.25;;;3.94;54.47
79400;BME280;68856;45.586;10.264;2023-04-06T03:44:26;99703.97;;;3.69;55.48
79400;BME280;68856;45.586;10.264;2023-04-06T03:46:52;99706.78;;;3.54;56.06
79400;BME280;68856;45.586;10.264;2023-04-06T03:49:18;99704.31;;;3.53;55.50
79400;BME280;68856;45.586;10.264;2023-04-06T03:51:44;99705.38;;;3.58;55.18
79400;BME280;68856;45.586;10.264;2023-04-06T03:54:11;99709.34;;;3.75;54.76
79400;BME280;68856;45.586;10.264;2023-04-06T03:56:37;99706.06;;;3.80;54.91
79400;BME280;68856;45.586;10.264;2023-04-06T04:01:34;99709.56;;;3.74;55.27
79400;BME280;68856;45.586;10.264;2023-04-06T04:04:00;99706.41;;;3.64;55.34
79400;BME280;68856;45.586;10.264;2023-04-06T04:06:27;99705.59;;;3.70;55.17
79400;BME280;68856;45.586;10.264;2023-04-06T04:08:53;99712.50;;;3.86;54.06
79400;BME280;68856;45.586;10.264;2023-04-06T04:11:19;99710.78;;;3.71;55.06
79400;BME280;68856;45.586;10.264;2023-04-06T04:13:45;99711.38;;;3.67;55.75
79400;BME280;68856;45.586;10.264;2023-04-06T04:16:12;99712.03;;;3.75;55.41
79400;BME280;68856;45.586;10.264;2023-04-06T04:18:38;99719.41;;;3.60;55.24
79400;BME280;68856;45.586;10.264;2023-04-06T04:21:04;99720.59;;;3.51;56.30
79400;BME280;68856;45.586;10.264;2023-04-06T04:23:31;99727.16;;;3.42;55.30
79400;BME280;68856;45.586;10.264;2023-04-06T04:25:57;99721.44;;;3.52;55.20
79400;BME280;68856;45.586;10.264;2023-04-06T04:28:23;99719.97;;;3.49;55.21
79400;BME280;68856;45.586;10.264;2023-04-06T04:30:49;99720.56;;;3.45;55.88
79400;BME280;68856;45.586;10.264;2023-04-06T04:33:16;99721.66;;;3.57;55.14
79400;BME280;68856;45.586;10.264;2023-04-06T04:35:42;99721.03;;;3.55;54.85
79400;BME280;68856;45.586;10.264;2023-04-06T04:38:08;99721.59;;;3.44;55.28
79400;BME280;68856;45.586;10.264;2023-04-06T04:40:35;99724.47;;;3.08;56.08
79400;BME280;68856;45.586;10.264;2023-04-06T04:43:01;99722.16;;;3.33;55.20
79400;BME280;68856;45.586;10.264;2023-04-06T04:45:27;99725.03;;;3.31;54.79
79400;BME280;68856;45.586;10.264;2023-04-06T04:47:53;99729.41;;;3.39;55.07
79400;BME280;68856;45.586;10.264;2023-04-06T04:50:20;99730.94;;;3.20;55.76
79400;BME280;68856;45.586;10.264;2023-04-06T04:52:46;99737.47;;;3.39;55.48
79400;BME280;68856;45.586;10.264;2023-04-06T04:55:12;99735.50;;;3.20;56.02
79400;BME280;68856;45.586;10.264;2023-04-06T04:57:38;99731.13;;;3.12;56.07
79400;BME280;68856;45.586;10.264;2023-04-06T05:00:05;99732.28;;;3.03;56.71
79400;BME280;68856;45.586;10.264;2023-04-06T05:02:32;99732.97;;;3.11;56.28
79400;BME280;68856;45.586;10.264;2023-04-06T05:04:58;99732.06;;;3.32;55.55
79400;BME280;68856;45.586;10.264;2023-04-06T05:07:24;99728.53;;;3.32;55.59
79400;BME280;68856;45.586;10.264;2023-04-06T05:09:51;99738.41;;;3.25;56.30
79400;BME280;68856;45.586;10.264;2023-04-06T05:12:18;99737.00;;;3.29;56.13
79400;BME280;68856;45.586;10.264;2023-04-06T05:14:44;99739.72;;;3.35;55.22
79400;BME280;68856;45.586;10.264;2023-04-06T05:17:11;99742.28;;;3.50;54.71
79400;BME280;68856;45.586;10.264;2023-04-06T05:19:37;99742.34;;;3.63;54.75
79400;BME280;68856;45.586;10.264;2023-04-06T05:22:04;99749.75;;;3.54;54.65
79400;BME280;68856;45.586;10.264;2023-04-06T05:24:30;99743.38;;;3.62;54.51
79400;BME280;68856;45.586;10.264;2023-04-06T05:26:57;99744.38;;;3.54;54.56
79400;BME280;68856;45.586;10.264;2023-04-06T05:29:23;99748.91;;;3.54;55.04
79400;BME280;68856;45.586;10.264;2023-04-06T05:31:51;99745.66;;;3.58;55.19
79400;BME280;68856;45.586;10.264;2023-04-06T05:34:17;99744.03;;;3.70;55.60
79400;BME280;68856;45.586;10.264;2023-04-06T05:36:44;99746.94;;;3.69;54.95
79400;BME280;68856;45.586;10.264;2023-04-06T05:39:10;99736.22;;;3.75;54.73
79400;BME280;68856;45.586;10.264;2023-04-06T05:41:38;99745.03;;;3.63;55.03
79400;BME280;68856;45.586;10.264;2023-04-06T05:44:04;99739.06;;;3.67;54.81
79400;BME280;68856;45.586;10.264;2023-04-06T05:46:31;99743.06;;;3.85;54.38
79400;BME280;68856;45.586;10.264;2023-04-06T05:48:57;99742.84;;;3.79;55.20
79400;BME280;68856;45.586;10.264;2023-04-06T05:51:23;99739.75;;;3.83;54.88
79400;BME280;68856;45.586;10.264;2023-04-06T05:53:49;99742.47;;;3.89;54.10
79400;BME280;68856;45.586;10.264;2023-04-06T05:56:16;99741.94;;;4.13;53.80
79400;BME280;68856;45.586;10.264;2023-04-06T05:58:42;99739.00;;;4.02;53.88
79400;BME280;68856;45.586;10.264;2023-04-06T06:01:08;99738.84;;;4.16;53.63
79400;BME280;68856;45.586;10.264;2023-04-06T06:03:35;99745.28;;;4.28;52.65
79400;BME280;68856;45.586;10.264;2023-04-06T06:06:02;99737.25;;;4.41;53.35
79400;BME280;68856;45.586;10.264;2023-04-06T06:08:29;99734.78;;;4.60;53.86
79400;BME280;68856;45.586;10.264;2023-04-06T06:10:56;99737.91;;;4.57;53.82
79400;BME280;68856;45.586;10.264;2023-04-06T06:13:22;99734.81;;;4.73;54.52
79400;BME280;68856;45.586;10.264;2023-04-06T06:15:49;99733.16;;;4.72;53.85
79400;BME280;68856;45.586;10.264;2023-04-06T06:18:16;99733.19;;;4.98;52.95
79400;BME280;68856;45.586;10.264;2023-04-06T06:20:42;99732.91;;;5.32;52.03
79400;BME280;68856;45.586;10.264;2023-04-06T06:23:09;99742.03;;;5.25;53.33
79400;BME280;68856;45.586;10.264;2023-04-06T06:25:35;99742.88;;;5.25;53.75
79400;BME280;68856;45.586;10.264;2023-04-06T06:28:01;99738.97;;;5.21;53.16
79400;BME280;68856;45.586;10.264;2023-04-06T06:30:28;99732.28;;;5.30;52.65
79400;BME280;68856;45.586;10.264;2023-04-06T06:32:54;99733.06;;;5.50;51.91
79400;BME280;68856;45.586;10.264;2023-04-06T06:35:20;99731.34;;;5.76;52.26
79400;BME280;68856;45.586;10.264;2023-04-06T06:37:47;99735.50;;;5.85;49.48
79400;BME280;68856;45.586;10.264;2023-04-06T06:40:13;99724.06;;;5.96;49.51
79400;BME280;68856;45.586;10.264;2023-04-06T06:42:41;99727.56;;;5.96;49.57
79400;BME280;68856;45.586;10.264;2023-04-06T06:45:08;99732.88;;;6.09;48.80
79400;BME280;68856;45.586;10.264;2023-04-06T06:47:35;99721.41;;;6.27;49.05
79400;BME280;68856;45.586;10.264;2023-04-06T06:50:01;99725.59;;;6.54;49.70
79400;BME280;68856;45.586;10.264;2023-04-06T06:52:29;99726.00;;;6.58;45.30
79400;BME280;68856;45.586;10.264;2023-04-06T06:54:55;99728.69;;;6.58;46.47
79400;BME280;68856;45.586;10.264;2023-04-06T06:57:22;99728.75;;;7.01;41.59
79400;BME280;68856;45.586;10.264;2023-04-06T06:59:48;99728.59;;;6.96;41.60
79400;BME280;68856;45.586;10.264;2023-04-06T07:02:15;99719.97;;;7.30;40.80
79400;BME280;68856;45.586;10.264;2023-04-06T07:04:41;99725.00;;;7.44;41.01
79400;BME280;68856;45.586;10.264;2023-04-06T07:07:07;99720.91;;;7.60;41.40
79400;BME280;68856;45.586;10.264;2023-04-06T07:09:34;99720.06;;;7.41;38.76
79400;BME280;68856;45.586;10.264;2023-04-06T07:12:01;99719.16;;;7.47;40.49
79400;BME280;68856;45.586;10.264;2023-04-06T07:14:28;99726.91;;;7.62;42.14
79400;BME280;68856;45.586;10.264;2023-04-06T07:16:54;99720.59;;;7.86;41.04
79400;BME280;68856;45.586;10.264;2023-04-06T07:19:20;99718.34;;;7.83;40.22
79400;BME280;68856;45.586;10.264;2023-04-06T07:21:47;99722.44;;;8.04;40.27
79400;BME280;68856;45.586;10.264;2023-04-06T07:24:15;99726.72;;;8.11;36.54
79400;BME280;68856;45.586;10.264;2023-04-06T07:26:42;99720.53;;;8.41;35.43
79400;BME280;68856;45.586;10.264;2023-04-06T07:29:08;99725.31;;;8.27;34.98
79400;BME280;68856;45.586;10.264;2023-04-06T07:31:34;99720.94;;;8.56;36.70
79400;BME280;68856;45.586;10.264;2023-04-06T07:34:02;99712.63;;;8.69;37.20
79400;BME280;68856;45.586;10.264;2023-04-06T07:36:28;99723.13;;;8.77;36.40
79400;BME280;68856;45.586;10.264;2023-04-06T07:38:54;99715.25;;;8.87;36.10
79400;BME280;68856;45.586;10.264;2023-04-06T07:41:21;99721.63;;;8.93;33.99
79400;BME280;68856;45.586;10.264;2023-04-06T07:43:47;99719.16;;;9.26;35.72
79400;BME280;68856;45.586;10.264;2023-04-06T07:46:14;99720.56;;;9.40;31.87
79400;BME280;68856;45.586;10.264;2023-04-06T07:48:40;99722.81;;;9.31;30.61
79400;BME280;68856;45.586;10.264;2023-04-06T07:51:07;99718.69;;;9.52;31.31
79400;BME280;68856;45.586;10.264;2023-04-06T07:53:34;99720.44;;;9.58;31.56
79400;BME280;68856;45.586;10.264;2023-04-06T07:56:01;99724.22;;;9.57;28.34
79400;BME280;68856;45.586;10.264;2023-04-06T07:58:27;99723.69;;;9.83;29.05
79400;BME280;68856;45.586;10.264;2023-04-06T08:00:53;99714.03;;;9.87;27.52
79400;BME280;68856;45.586;10.264;2023-04-06T08:03:21;99717.78;;;9.98;27.08
79400;BME280;68856;45.586;10.264;2023-04-06T08:05:51;99710.25;;;10.56;28.28
79400;BME280;68856;45.586;10.264;2023-04-06T08:08:18;99711.19;;;10.79;27.09
79400;BME280;68856;45.586;10.264;2023-04-06T08:10:47;99711.38;;;10.44;24.24
79400;BME280;68856;45.586;10.264;2023-04-06T08:13:14;99705.72;;;10.62;27.32
79400;BME280;68856;45.586;10.264;2023-04-06T08:15:41;99707.88;;;10.77;24.96
79400;BME280;68856;45.586;10.264;2023-04-06T08:18:08;99706.94;;;10.99;24.49
79400;BME280;68856;45.586;10.264;2023-04-06T08:20:35;99708.31;;;10.85;23.68
79400;BME280;68856;45.586;10.264;2023-04-06T08:23:01;99712.69;;;10.86;24.27
79400;BME280;68856;45.586;10.264;2023-04-06T08:25:28;99705.84;;;11.00;25.45
79400;BME280;68856;45.586;10.264;2023-04-06T08:27:54;99708.16;;;11.25;24.81
79400;BME280;68856;45.586;10.264;2023-04-06T08:30:21;99706.50;;;11.07;24.09
79400;BME280;68856;45.586;10.264;2023-04-06T08:32:47;99709.97;;;11.19;25.59
79400;BME280;68856;45.586;10.264;2023-04-06T08:35:13;99697.88;;;11.49;25.79
79400;BME280;68856;45.586;10.264;2023-04-06T08:37:40;99699.88;;;11.53;25.74
79400;BME280;68856;45.586;10.264;2023-04-06T08:40:07;99698.69;;;11.66;26.34
79400;BME280;68856;45.586;10.264;2023-04-06T08:42:34;99699.31;;;11.35;23.50
79400;BME280;68856;45.586;10.264;2023-04-06T08:45:05;99698.06;;;11.42;25.11
79400;BME280;68856;45.586;10.264;2023-04-06T08:47:32;99691.50;;;11.60;24.78
79400;BME280;68856;45.586;10.264;2023-04-06T08:50:03;99685.84;;;11.45;23.24
79400;BME280;68856;45.586;10.264;2023-04-06T08:52:32;99691.69;;;11.70;22.60
79400;BME280;68856;45.586;10.264;2023-04-06T08:54:59;99695.47;;;11.91;23.55
79400;BME280;68856;45.586;10.264;2023-04-06T08:57:27;99682.69;;;11.91;22.50
79400;BME280;68856;45.586;10.264;2023-04-06T08:59:54;99678.91;;;11.92;23.10
79400;BME280;68856;45.586;10.264;2023-04-06T09:02:22;99675.75;;;12.27;23.10
79400;BME280;68856;45.586;10.264;2023-04-06T09:04:49;99681.81;;;11.85;22.88
79400;BME280;68856;45.586;10.264;2023-04-06T09:07:18;99685.69;;;11.90;23.02
79400;BME280;68856;45.586;10.264;2023-04-06T09:09:44;99683.53;;;11.92;23.54
79400;BME280;68856;45.586;10.264;2023-04-06T09:12:27;99672.19;;;12.00;23.74
79400;BME280;68856;45.586;10.264;2023-04-06T09:14:55;99678.00;;;12.08;23.29
79400;BME280;68856;45.586;10.264;2023-04-06T09:17:23;99676.59;;;12.27;24.24
79400;BME280;68856;45.586;10.264;2023-04-06T09:19:50;99685.91;;;11.88;23.72
79400;BME280;68856;45.586;10.264;2023-04-06T09:22:17;99686.88;;;11.99;25.32
79400;BME280;68856;45.586;10.264;2023-04-06T09:24:47;99677.88;;;12.20;24.92
79400;BME280;68856;45.586;10.264;2023-04-06T09:27:14;99678.25;;;12.07;25.76
79400;BME280;68856;45.586;10.264;2023-04-06T09:29:45;99675.22;;;12.03;25.61
79400;BME280;68856;45.586;10.264;2023-04-06T09:32:12;99669.31;;;12.11;25.05
79400;BME280;68856;45.586;10.264;2023-04-06T09:34:42;99670.69;;;12.67;24.58
79400;BME280;68856;45.586;10.264;2023-04-06T09:37:15;99662.59;;;12.72;24.97
79400;BME280;68856;45.586;10.264;2023-04-06T09:39:42;99660.22;;;12.86;23.70
79400;BME280;68856;45.586;10.264;2023-04-06T09:42:09;99668.19;;;12.34;24.27
79400;BME280;68856;45.586;10.264;2023-04-06T09:44:35;99665.66;;;12.49;24.39
79400;BME280;68856;45.586;10.264;2023-04-06T09:47:05;99652.13;;;12.96;25.69
79400;BME280;68856;45.586;10.264;2023-04-06T09:49:33;99654.81;;;12.91;23.72
79400;BME280;68856;45.586;10.264;2023-04-06T09:52:02;99646.88;;;12.52;24.18
79400;BME280;68856;45.586;10.264;2023-04-06T09:54:30;99635.59;;;12.71;23.85
79400;BME280;68856;45.586;10.264;2023-04-06T09:57:04;99641.69;;;13.20;23.74
79400;BME280;68856;45.586;10.264;2023-04-06T10:04:59;99637.25;;;13.50;24.91
79400;BME280;68856;45.586;10.264;2023-04-06T10:07:28;99633.75;;;13.60;22.68
79400;BME280;68856;45.586;10.264;2023-04-06T10:09:55;99619.22;;;13.44;22.50
79400;BME280;68856;45.586;10.264;2023-04-06T10:12:22;99631.38;;;13.27;23.02
79400;BME280;68856;45.586;10.264;2023-04-06T10:14:49;99619.50;;;13.53;22.42
79400;BME280;68856;45.586;10.264;2023-04-06T10:17:15;99618.88;;;13.93;22.86
79400;BME280;68856;45.586;10.264;2023-04-06T10:19:55;99616.63;;;13.80;22.20
79400;BME280;68856;45.586;10.264;2023-04-06T10:22:39;99619.38;;;13.80;21.84
79400;BME280;68856;45.586;10.264;2023-04-06T10:25:08;99621.94;;;14.06;22.40
79400;BME280;68856;45.586;10.264;2023-04-06T10:27:35;99620.41;;;14.66;21.17
79400;BME280;68856;45.586;10.264;2023-04-06T10:30:03;99622.47;;;14.08;22.23
79400;BME280;68856;45.586;10.264;2023-04-06T10:32:37;99621.47;;;14.50;20.87
79400;BME280;68856;45.586;10.264;2023-04-06T10:35:11;99609.88;;;15.64;20.64
79400;BME280;68856;45.586;10.264;2023-04-06T10:37:53;99606.75;;;17.30;17.95
79400;BME280;68856;45.586;10.264;2023-04-06T10:40:24;99600.13;;;18.02;17.62
79400;BME280;68856;45.586;10.264;2023-04-06T10:42:55;99599.94;;;19.19;15.59
79400;BME280;68856;45.586;10.264;2023-04-06T10:45:23;99606.31;;;18.32;16.32
79400;BME280;68856;45.586;10.264;2023-04-06T10:47:51;99597.56;;;19.59;16.31
79400;BME280;68856;45.586;10.264;2023-04-06T10:50:18;99586.78;;;21.14;14.27
79400;BME280;68856;45.586;10.264;2023-04-06T10:52:46;99588.31;;;21.59;13.36
79400;BME280;68856;45.586;10.264;2023-04-06T10:55:14;99587.69;;;21.62;13.20
79400;BME280;68856;45.586;10.264;2023-04-06T10:57:41;99581.94;;;21.98;14.96
79400;BME280;68856;45.586;10.264;2023-04-06T11:00:08;99577.13;;;22.81;12.57
79400;BME280;68856;45.586;10.264;2023-04-06T11:02:35;99584.78;;;21.76;12.96
79400;BME280;68856;45.586;10.264;2023-04-06T11:05:05;99580.06;;;22.50;12.83
79400;BME280;68856;45.586;10.264;2023-04-06T11:07:32;99572.41;;;24.03;12.35
79400;BME280;68856;45.586;10.264;2023-04-06T11:09:58;99567.16;;;22.46;13.06
79400;BME280;68856;45.586;10.264;2023-04-06T11:12:26;99567.28;;;21.89;14.09
79400;BME280;68856;45.586;10.264;2023-04-06T11:14:56;99562.38;;;21.86;13.26
79400;BME280;68856;45.586;10.264;2023-04-06T11:17:31;99556.50;;;23.92;12.63
79400;BME280;68856;45.586;10.264;2023-04-06T11:19:58;99561.97;;;23.42;11.83
79400;BME280;68856;45.586;10.264;2023-04-06T11:22:26;99556.59;;;23.45;11.36
79400;BME280;68856;45.586;10.264;2023-04-06T11:24:53;99545.66;;;22.77;11.65
79400;BME280;68856;45.586;10.264;2023-04-06T11:27:20;99543.75;;;24.41;11.36
79400;BME280;68856;45.586;10.264;2023-04-06T11:29:47;99535.88;;;26.41;10.80
79400;BME280;68856;45.586;10.264;2023-04-06T11:32:21;99536.03;;;27.63;8.57
79400;BME280;68856;45.586;10.264;2023-04-06T11:34:48;99538.19;;;27.38;8.99
79400;BME280;68856;45.586;10.264;2023-04-06T11:37:14;99526.56;;;25.73;10.45
79400;BME280;68856;45.586;10.264;2023-04-06T11:39:50;99531.56;;;26.44;9.76
79400;BME280;68856;45.586;10.264;2023-04-06T11:42:27;99531.06;;;26.54;9.54
79400;BME280;68856;45.586;10.264;2023-04-06T11:44:56;99519.25;;;27.32;9.07
79400;BME280;68856;45.586;10.264;2023-04-06T11:47:30;99528.09;;;27.49;8.29
79400;BME280;68856;45.586;10.264;2023-04-06T11:50:06;99527.97;;;26.71;8.67
79400;BME280;68856;45.586;10.264;2023-04-06T11:52:33;99529.66;;;26.32;9.13
79400;BME280;68856;45.586;10.264;2023-04-06T11:55:09;99527.75;;;27.51;8.28
79400;BME280;68856;45.586;10.264;2023-04-06T11:57:35;99514.66;;;28.97;9.20
79400;BME280;68856;45.586;10.264;2023-04-06T12:00:02;99518.72;;;28.81;7.47
79400;BME280;68856;45.586;10.264;2023-04-06T12:02:28;99512.16;;;29.83;7.54
79400;BME280;68856;45.586;10.264;2023-04-06T12:04:55;99510.38;;;29.98;6.57
79400;BME280;68856;45.586;10.264;2023-04-06T12:07:21;99505.09;;;29.93;6.47
79400;BME280;68856;45.586;10.264;2023-04-06T12:09:47;99505.25;;;30.03;6.78
79400;BME280;68856;45.586;10.264;2023-04-06T12:12:13;99501.78;;;31.10;5.80
79400;BME280;68856;45.586;10.264;2023-04-06T12:14:40;99489.47;;;31.25;6.32
79400;BME280;68856;45.586;10.264;2023-04-06T12:17:06;99500.13;;;30.72;6.07
79400;BME280;68856;45.586;10.264;2023-04-06T12:19:32;99485.91;;;30.54;6.29
79400;BME280;68856;45.586;10.264;2023-04-06T12:21:59;99482.28;;;31.31;5.96
79400;BME280;68856;45.586;10.264;2023-04-06T12:24:25;99472.72;;;31.35;6.57
79400;BME280;68856;45.586;10.264;2023-04-06T12:26:51;99459.63;;;32.08;6.04
79400;BME280;68856;45.586;10.264;2023-04-06T12:29:18;99465.28;;;31.10;6.09
79400;BME280;68856;45.586;10.264;2023-04-06T12:31:45;99456.69;;;29.70;6.43
79400;BME280;68856;45.586;10.264;2023-04-06T12:34:11;99448.84;;;30.38;6.07
79400;BME280;68856;45.586;10.264;2023-04-06T12:36:38;99443.78;;;31.31;5.38
79400;BME280;68856;45.586;10.264;2023-04-06T12:39:05;99443.97;;;31.02;5.75
79400;BME280;68856;45.586;10.264;2023-04-06T12:41:31;99444.19;;;29.37;6.75
79400;BME280;68856;45.586;10.264;2023-04-06T12:43:58;99429.84;;;30.24;6.21
79400;BME280;68856;45.586;10.264;2023-04-06T12:46:28;99432.75;;;31.53;5.42
79400;BME280;68856;45.586;10.264;2023-04-06T12:48:56;99430.03;;;32.46;5.34
79400;BME280;68856;45.586;10.264;2023-04-06T12:51:27;99428.56;;;31.36;6.02
79400;BME280;68856;45.586;10.264;2023-04-06T12:53:53;99423.09;;;31.50;5.88
79400;BME280;68856;45.586;10.264;2023-04-06T12:56:20;99415.19;;;32.52;5.13
79400;BME280;68856;45.586;10.264;2023-04-06T12:58:51;99416.03;;;29.79;6.07
79400;BME280;68856;45.586;10.264;2023-04-06T13:01:18;99410.53;;;30.90;5.91
79400;BME280;68856;45.586;10.264;2023-04-06T13:03:44;99409.91;;;30.30;6.25
79400;BME280;68856;45.586;10.264;2023-04-06T13:06:11;99414.63;;;30.55;5.79